KCAE/CAE METAR and TAF weather

Enter ICAO airport designator
Station Type Date Time Source
KCAE METAR 2022/05/23 13:56 UTC NOAA

KCAE 231356Z 19004KT 10SM FEW030 BKN200 26/20 A3013 RMK AO2 SLP201 T02560200


Station Type Date Time Source
KCAE Decoded METAR 2022/05/23 13:56 UTC NOAA

COLUMBIA METROPOLITAN AIRPORT , SC, United States (KCAE) 33-57N 081-07W 73M
May 23, 2022 - 09:56 AM EDT / 2022.05.23 1356 UTC
Wind: from the S (190 degrees) at 5 MPH (4 KT):0
Visibility: 10 mile(s):0
Sky conditions: mostly cloudy
Temperature: 78.1 F (25.6 C)
Dew Point: 68.0 F (20.0 C)
Relative Humidity: 71%
Pressure (altimeter): 30.13 in. Hg (1020 hPa)
ob: KCAE 231356Z 19004KT 10SM FEW030 BKN200 26/20 A3013 RMK AO2 SLP201 T02560200
cycle: 14

Station Type Date Time Source
KCAE TAF 2022/05/23 12:42 UTC NOAA

TAF KCAE 231138Z 2312/2412 VRB05KT P6SM BKN080
FM231700 21006KT P6SM VCTS BKN035CB
TEMPO 2317/2320 2SM TSRA BKN030CB
FM232100 24005KT P6SM VCSH BKN050
FM240300 VRB04KT P6SM BKN100

Example: see airport list